KLBB/LBB METAR and TAF weather

Enter ICAO airport designator
Station Type Date Time Source
KLBB METAR 2021/07/26 12:53 UTC NOAA

KLBB 261253Z 10004KT 10SM FEW090 SCT120 SCT160 BKN240 24/18 A3009 RMK AO2 SLP134 CB DSNT NE MOV E T02390178


Station Type Date Time Source
KLBB Decoded METAR 2021/07/26 12:53 UTC NOAA

LUBBOCK INTERNATIONAL AIRPORT , TX, United States (KLBB) 33-40N 101-49W 992M
Jul 26, 2021 - 08:53 AM EDT / 2021.07.26 1253 UTC
Wind: from the E (100 degrees) at 5 MPH (4 KT):0
Visibility: 10 mile(s):0
Sky conditions: mostly cloudy
Weather: Cumulonimbus clouds observed
Temperature: 75.0 F (23.9 C)
Dew Point: 64.0 F (17.8 C)
Relative Humidity: 68%
Pressure (altimeter): 30.09 in. Hg (1018 hPa)
ob: KLBB 261253Z 10004KT 10SM FEW090 SCT120 SCT160 BKN240 24/18 A3009 RMK AO2 SLP134 CB DSNT NE MOV E T02390178
cycle: 13

Station Type Date Time Source
KLBB TAF 2021/07/26 12:22 UTC NOAA

TAF KLBB 261120Z 2612/2712 VRB06KT P6SM VCTS BKN080CB OVC250
FM261400 VRB06KT P6SM SCT080 SCT250

Example: see airport list